createdAt,value
2018-04-30T00:01:44.713Z,97705.83
2018-04-30T00:04:15.271Z,97704.11
2018-04-30T00:06:46.166Z,97697.76
2018-04-30T00:09:17.963Z,97683.22
2018-04-30T00:11:47.883Z,97693.14
2018-04-30T00:14:17.648Z,97680.36
2018-04-30T00:16:47.045Z,97678.44
2018-04-30T00:19:17.972Z,97680.47
2018-04-30T00:21:47.583Z,97659.16
2018-04-30T00:24:17.047Z,97662.76
2018-04-30T00:26:46.950Z,97661.98
2018-04-30T00:29:17.192Z,97666.29
2018-04-30T00:31:47.339Z,97659.63
2018-04-30T00:34:17.912Z,97652.14
2018-04-30T00:36:47.861Z,97645.86
2018-04-30T00:39:18.153Z,97639.91
2018-04-30T00:41:47.553Z,97640.46
2018-04-30T00:44:17.346Z,97631.69
2018-04-30T00:46:47.268Z,97621.19
2018-04-30T00:49:17.955Z,97623.61
2018-04-30T00:51:48.494Z,97615.53
2018-04-30T00:54:26.649Z,97611.15
2018-04-30T00:56:56.187Z,97607.15
2018-04-30T00:59:26.298Z,97597.91
2018-04-30T01:01:58.060Z,97590.22
2018-04-30T01:04:27.814Z,97570.71
2018-04-30T01:06:57.764Z,97546.83
2018-04-30T01:09:27.544Z,97542.17
2018-04-30T01:12:00.244Z,97563.27
2018-04-30T01:14:31.506Z,97566.83
2018-04-30T01:17:01.797Z,97561.82
2018-04-30T01:19:33.936Z,97554.14
2018-04-30T01:22:04.229Z,97555.09
2018-04-30T01:24:34.755Z,97558.69
2018-04-30T01:27:04.638Z,97556.58
2018-04-30T01:29:34.870Z,97555.09
2018-04-30T01:32:04.537Z,97571.08
2018-04-30T01:34:34.194Z,97571.78
2018-04-30T01:37:04.012Z,97561.47
2018-04-30T01:39:33.637Z,97539.82
2018-04-30T01:42:03.972Z,97549.09
2018-04-30T01:44:34.605Z,97547.45
2018-04-30T01:47:04.244Z,97535.75
2018-04-30T01:49:34.200Z,97543.23
2018-04-30T01:52:04.099Z,97533.83
2018-04-30T01:54:34.761Z,97547.77
2018-04-30T01:57:04.402Z,97544.25
2018-04-30T01:59:34.316Z,97582.36
2018-04-30T02:02:05.920Z,97550.32
2018-04-30T02:04:40.378Z,97532.14
2018-04-30T02:07:10.857Z,97524.70
2018-04-30T02:09:42.338Z,97523.59
2018-04-30T02:12:11.951Z,97512.55
2018-04-30T02:14:43.827Z,97502.83
2018-04-30T02:17:14.528Z,97498.22
2018-04-30T02:19:44.462Z,97500.09
2018-04-30T02:22:14.433Z,97502.64
2018-04-30T02:24:44.329Z,97466.69
2018-04-30T02:27:14.622Z,97489.37
2018-04-30T02:29:44.349Z,97488.39
2018-04-30T02:32:14.522Z,97490.59
2018-04-30T02:34:44.070Z,97487.80
2018-04-30T02:37:13.818Z,97490.59
2018-04-30T02:39:46.021Z,97393.68
2018-04-30T02:42:16.454Z,97487.84
2018-04-30T02:44:46.243Z,97488.79
2018-04-30T02:47:16.004Z,97502.11
2018-04-30T02:49:45.863Z,97478.34
2018-04-30T02:52:15.586Z,97466.79
2018-04-30T02:54:45.937Z,97482.17
2018-04-30T02:57:15.583Z,97485.44
2018-04-30T02:59:46.073Z,97492.41
2018-04-30T03:02:16.320Z,97506.92
2018-04-30T03:04:46.697Z,97499.09
2018-04-30T03:07:16.619Z,97498.94
2018-04-30T03:09:47.205Z,97498.46
2018-04-30T03:12:17.972Z,97503.78
2018-04-30T03:14:47.743Z,97510.38
2018-04-30T03:17:17.655Z,97513.27
2018-04-30T03:19:48.190Z,97492.48
2018-04-30T03:22:18.227Z,97493.51
2018-04-30T03:24:47.902Z,97506.75
2018-04-30T03:27:18.534Z,97472.19
2018-04-30T03:29:55.476Z,97494.56
2018-04-30T03:32:25.962Z,97503.74
2018-04-30T03:34:56.614Z,97506.51
2018-04-30T03:37:26.717Z,97509.95
2018-04-30T03:39:56.713Z,97504.62
2018-04-30T03:42:26.713Z,97500.13
2018-04-30T03:44:56.610Z,97492.69
2018-04-30T03:47:27.328Z,97506.97
2018-04-30T03:49:56.945Z,97497.94
2018-04-30T03:52:26.605Z,97514.57
2018-04-30T03:54:56.403Z,97479.86
2018-04-30T03:57:26.077Z,97459.59
2018-04-30T03:59:55.950Z,97515.95
2018-04-30T04:08:55.618Z,97486.44
2018-04-30T04:11:26.091Z,97530.91
2018-04-30T04:13:55.831Z,97512.79
2018-04-30T04:16:25.405Z,97468.37
2018-04-30T04:18:54.782Z,97513.14
2018-04-30T04:21:24.461Z,97553.47
2018-04-30T04:23:54.164Z,97491.94
2018-04-30T04:26:24.655Z,97513.73
2018-04-30T04:28:55.385Z,97538.75
2018-04-30T04:31:26.382Z,97504.36
2018-04-30T04:33:56.295Z,97529.14
2018-04-30T04:36:26.405Z,97507.54
2018-04-30T04:38:56.022Z,97537.73
2018-04-30T04:41:25.494Z,97550.29
2018-04-30T04:43:55.385Z,97547.16
2018-04-30T04:46:25.393Z,97546.92
2018-04-30T04:48:56.057Z,97566.97
2018-04-30T04:51:26.727Z,97605.98
2018-04-30T04:53:56.508Z,97618.15
2018-04-30T04:56:26.627Z,97591.22
2018-04-30T04:58:56.240Z,97600.12
2018-04-30T05:01:26.476Z,97635.39
2018-04-30T05:03:56.071Z,97646.94
2018-04-30T05:06:25.978Z,97645.42
2018-04-30T05:08:56.009Z,97637.98
2018-04-30T05:11:25.762Z,97618.70
2018-04-30T05:13:55.523Z,97634.69
2018-04-30T05:16:27.595Z,97636.09
2018-04-30T05:18:57.474Z,97621.36
2018-04-30T05:21:27.961Z,97648.94
2018-04-30T05:23:57.882Z,97631.88
2018-04-30T05:26:28.113Z,97673.98
2018-04-30T05:28:58.142Z,97651.16
2018-04-30T05:31:28.741Z,97674.52
2018-04-30T05:33:58.426Z,97681.63
2018-04-30T05:36:28.734Z,97687.73
2018-04-30T05:38:58.713Z,97689.45
2018-04-30T05:41:28.126Z,97691.96
2018-04-30T05:43:58.685Z,97654.20
2018-04-30T05:46:29.031Z,97691.63
2018-04-30T05:48:58.455Z,97697.84
2018-04-30T05:51:28.527Z,97689.56
2018-04-30T05:53:57.989Z,97701.39
2018-04-30T05:56:27.531Z,97711.34
2018-04-30T05:58:57.421Z,97720.48
2018-04-30T06:01:28.755Z,97733.30
2018-04-30T06:03:58.347Z,97720.95
2018-04-30T06:06:28.278Z,97732.44
2018-04-30T06:08:57.925Z,97748.31
2018-04-30T06:11:28.375Z,97711.78
2018-04-30T06:13:58.257Z,97752.91
2018-04-30T06:16:27.751Z,97753.30
2018-04-30T06:18:57.547Z,97768.58
2018-04-30T06:21:28.020Z,97753.98
2018-04-30T06:23:57.417Z,97784.10
2018-04-30T06:26:27.589Z,97777.66
2018-04-30T06:28:57.410Z,97778.17
2018-04-30T06:31:26.850Z,97785.46
2018-04-30T06:33:56.282Z,97777.70
2018-04-30T06:36:26.644Z,97782.56
2018-04-30T06:38:56.056Z,97791.89
2018-04-30T06:41:26.100Z,97789.92
2018-04-30T06:43:55.591Z,97793.22
2018-04-30T06:46:25.462Z,97795.94
2018-04-30T06:48:55.251Z,97817.07
2018-04-30T06:51:25.199Z,97797.58
2018-04-30T06:53:54.653Z,97824.67
2018-04-30T06:56:24.241Z,97812.21
2018-04-30T06:58:54.190Z,97807.19
2018-04-30T07:01:25.149Z,97825.30
2018-04-30T07:03:54.644Z,97837.05
2018-04-30T07:06:25.036Z,97833.02
2018-04-30T07:08:56.072Z,97858.16
2018-04-30T07:11:27.556Z,97861.64
2018-04-30T07:13:57.839Z,97870.31
2018-04-30T07:16:27.802Z,97865.86
2018-04-30T07:18:57.263Z,97908.48
2018-04-30T07:21:27.020Z,97889.06
2018-04-30T07:23:57.518Z,97897.84
2018-04-30T07:26:27.967Z,97894.92
2018-04-30T07:28:58.572Z,97908.33
2018-04-30T07:31:28.976Z,97923.06
2018-04-30T07:33:58.554Z,97908.95
2018-04-30T07:36:28.557Z,97910.44
2018-04-30T07:38:57.965Z,97920.08
2018-04-30T07:41:27.483Z,97929.15
2018-04-30T07:43:57.378Z,97917.95
2018-04-30T07:46:27.229Z,97946.38
2018-04-30T07:48:57.175Z,97939.19
2018-04-30T07:51:26.700Z,97941.22
2018-04-30T07:53:56.161Z,97949.05
2018-04-30T07:56:26.463Z,97906.13
2018-04-30T07:58:56.116Z,97946.73
2018-04-30T08:01:27.648Z,97876.86
2018-04-30T08:03:57.386Z,97916.91
2018-04-30T08:06:28.018Z,97963.43
2018-04-30T08:08:59.734Z,97948.70
2018-04-30T08:11:31.469Z,97938.51
2018-04-30T08:14:01.666Z,97973.45
2018-04-30T08:16:31.075Z,97972.75
2018-04-30T08:19:00.654Z,97963.66
2018-04-30T08:21:30.262Z,97930.50
2018-04-30T08:24:00.002Z,97960.73
2018-04-30T08:26:29.771Z,97958.09
2018-04-30T08:29:00.622Z,97981.55
2018-04-30T08:31:30.997Z,97984.05
2018-04-30T08:34:01.525Z,98000.06
2018-04-30T08:36:31.272Z,97988.54
2018-04-30T08:39:00.977Z,97990.73
2018-04-30T08:41:31.393Z,97980.97
2018-04-30T08:44:01.075Z,97997.47
2018-04-30T08:46:30.715Z,97988.67
2018-04-30T08:49:00.723Z,97981.10
2018-04-30T08:51:32.187Z,98000.62
2018-04-30T08:54:01.928Z,98017.27
2018-04-30T08:56:31.672Z,98018.28
2018-04-30T08:59:01.108Z,98023.56
2018-04-30T09:01:30.957Z,98036.52
2018-04-30T09:04:00.543Z,98029.53
2018-04-30T09:06:30.336Z,98039.16
2018-04-30T09:08:59.794Z,98032.63
2018-04-30T09:11:29.220Z,98039.14
2018-04-30T09:13:58.604Z,98040.31
2018-04-30T09:16:28.488Z,98039.92
2018-04-30T09:18:57.979Z,98020.41
2018-04-30T09:21:27.538Z,98026.14
2018-04-30T09:23:57.046Z,98033.52
2018-04-30T09:26:26.499Z,98019.64
2018-04-30T09:28:56.011Z,98019.63
2018-04-30T09:31:26.532Z,98025.90
2018-04-30T09:33:56.249Z,98038.45
2018-04-30T09:36:26.685Z,98022.52
2018-04-30T09:38:56.955Z,98053.43
2018-04-30T09:41:26.370Z,98061.28
2018-04-30T09:43:56.602Z,98085.84
2018-04-30T09:46:26.839Z,98093.50
2018-04-30T09:48:56.732Z,98093.84
2018-04-30T09:51:26.263Z,98100.52
2018-04-30T09:53:57.095Z,98091.09
2018-04-30T09:56:28.103Z,98099.66
2018-04-30T09:59:02.908Z,98100.30
2018-04-30T10:01:34.015Z,98101.92
2018-04-30T10:04:03.757Z,98097.51
2018-04-30T10:06:33.837Z,98113.38
2018-04-30T10:09:03.676Z,98078.08
2018-04-30T10:11:33.531Z,98062.22
2018-04-30T10:14:02.947Z,98070.83
2018-04-30T10:16:33.711Z,98050.37
2018-04-30T10:19:03.156Z,98070.09
2018-04-30T10:21:33.327Z,98083.17
2018-04-30T10:24:02.888Z,98082.11
2018-04-30T10:26:32.935Z,98098.59
2018-04-30T10:29:03.302Z,98093.02
2018-04-30T10:31:32.881Z,98083.58
2018-04-30T10:34:02.497Z,98089.13
2018-04-30T10:36:32.066Z,98087.67
2018-04-30T10:39:02.655Z,98084.89
2018-04-30T10:41:32.635Z,98096.36
2018-04-30T10:44:02.685Z,98050.42
2018-04-30T10:46:32.245Z,98095.19
2018-04-30T10:49:02.005Z,98092.73
2018-04-30T10:51:31.819Z,98083.15
2018-04-30T10:54:01.872Z,98087.16
2018-04-30T10:56:31.686Z,98087.52
2018-04-30T10:59:01.557Z,98104.92
2018-04-30T11:01:31.190Z,98100.77
2018-04-30T11:04:00.945Z,98106.47
2018-04-30T11:06:31.383Z,98106.29
2018-04-30T11:09:00.877Z,98122.86
2018-04-30T11:11:30.543Z,98115.39
2018-04-30T11:13:59.993Z,98106.00
2018-04-30T11:16:32.394Z,98097.67
2018-04-30T11:19:09.534Z,98109.55
2018-04-30T11:21:41.042Z,98102.56
2018-04-30T11:24:13.295Z,98099.03
2018-04-30T11:26:43.306Z,98130.66
2018-04-30T11:29:13.559Z,98083.52
2018-04-30T11:31:45.833Z,98106.17
2018-04-30T11:34:15.885Z,98094.80
2018-04-30T11:36:46.048Z,98102.89
2018-04-30T11:39:15.997Z,98104.69
2018-04-30T11:41:45.725Z,98096.73
2018-04-30T11:44:15.357Z,98109.84
2018-04-30T11:46:45.293Z,98113.84
2018-04-30T11:49:16.217Z,98112.46
2018-04-30T11:51:46.096Z,98127.16
2018-04-30T11:54:16.340Z,98114.14
2018-04-30T11:56:46.104Z,98142.83
2018-04-30T11:59:15.639Z,98141.34
2018-04-30T12:01:45.398Z,98145.34
2018-04-30T12:04:14.968Z,98134.06
2018-04-30T12:06:45.074Z,98146.30
2018-04-30T12:09:15.051Z,98149.67
2018-04-30T12:11:44.560Z,98151.80
2018-04-30T12:14:14.013Z,98148.67
2018-04-30T12:16:44.456Z,98049.06
2018-04-30T12:19:14.149Z,98145.83
2018-04-30T12:21:43.778Z,98155.27
2018-04-30T12:24:14.086Z,98117.27
2018-04-30T12:26:45.026Z,98153.21
2018-04-30T12:29:14.481Z,98134.52
2018-04-30T12:31:45.256Z,98145.42
2018-04-30T12:34:14.928Z,98045.58
2018-04-30T12:36:45.036Z,98138.35
2018-04-30T12:39:14.857Z,98142.25
2018-04-30T12:41:45.338Z,98137.03
2018-04-30T12:44:14.758Z,98146.53
2018-04-30T12:46:45.018Z,98148.97
2018-04-30T12:49:14.518Z,98149.77
2018-04-30T12:51:44.258Z,98161.00
2018-04-30T12:54:15.571Z,98159.88
2018-04-30T12:56:45.060Z,98146.53
2018-04-30T12:59:14.687Z,98153.84
2018-04-30T13:01:44.809Z,98159.53
2018-04-30T13:04:15.204Z,98168.95
2018-04-30T13:06:44.646Z,98153.51
2018-04-30T13:09:14.534Z,98152.46
2018-04-30T13:11:43.985Z,98161.73
2018-04-30T13:14:13.409Z,98147.83
2018-04-30T13:16:44.038Z,98070.17
2018-04-30T13:19:14.231Z,98145.27
2018-04-30T13:21:45.031Z,98070.36
2018-04-30T13:24:15.030Z,98125.66
2018-04-30T13:26:45.111Z,98095.45
2018-04-30T13:29:15.920Z,98142.48
2018-04-30T13:31:47.433Z,98148.30
2018-04-30T13:34:17.628Z,98139.52
2018-04-30T13:36:47.846Z,98123.77
2018-04-30T13:39:19.996Z,98144.22
2018-04-30T13:41:52.462Z,98147.14
2018-04-30T13:44:23.542Z,98142.80
2018-04-30T13:46:53.293Z,98156.17
2018-04-30T13:49:23.365Z,98148.54
2018-04-30T13:51:52.742Z,98144.82
2018-04-30T13:54:22.518Z,98156.37
2018-04-30T13:56:53.469Z,98155.11
2018-04-30T13:59:23.116Z,98150.95
2018-04-30T14:01:53.289Z,98152.34
2018-04-30T14:04:23.241Z,98155.64
2018-04-30T14:06:52.659Z,98140.33
2018-04-30T14:09:23.285Z,98145.67
2018-04-30T14:11:53.034Z,98142.57
2018-04-30T14:14:22.905Z,98128.37
2018-04-30T14:16:53.031Z,98148.22
2018-04-30T14:19:23.020Z,98124.92
2018-04-30T14:21:53.257Z,98130.53
2018-04-30T14:24:22.951Z,98127.81
2018-04-30T14:26:52.891Z,98132.45
2018-04-30T14:29:22.262Z,98126.22
2018-04-30T14:31:52.263Z,98139.22
2018-04-30T14:34:22.054Z,98130.08
2018-04-30T14:36:51.448Z,98144.61
2018-04-30T14:39:21.495Z,98130.08
2018-04-30T14:41:51.276Z,98131.54
2018-04-30T14:44:20.865Z,98130.43
2018-04-30T14:46:50.407Z,98122.17
2018-04-30T14:49:20.289Z,98124.66
2018-04-30T14:51:50.070Z,98129.16
2018-04-30T14:54:19.491Z,98120.79
2018-04-30T14:56:49.293Z,98136.56
2018-04-30T14:59:19.247Z,98118.16
2018-04-30T15:01:48.715Z,98108.52
2018-04-30T15:04:18.494Z,98123.42
2018-04-30T15:06:47.918Z,98110.77
2018-04-30T15:09:17.541Z,98128.09
2018-04-30T15:11:47.047Z,98128.29
2018-04-30T15:14:16.568Z,98121.90
2018-04-30T15:16:46.250Z,98123.47
2018-04-30T15:19:16.127Z,98128.50
2018-04-30T15:21:45.769Z,98135.46
2018-04-30T15:24:15.859Z,98124.55
2018-04-30T15:26:45.304Z,98093.50
2018-04-30T15:29:15.154Z,98114.19
2018-04-30T15:31:45.275Z,98111.78
2018-04-30T15:34:14.918Z,98128.70
2018-04-30T15:36:44.611Z,98119.16
2018-04-30T15:39:14.483Z,98117.01
2018-04-30T15:41:44.965Z,98056.22
2018-04-30T15:44:14.427Z,98125.34
2018-04-30T15:46:45.788Z,98053.80
2018-04-30T15:49:15.440Z,98136.74
2018-04-30T15:51:45.314Z,98130.25
2018-04-30T15:54:15.174Z,98131.73
2018-04-30T15:56:44.897Z,98145.16
2018-04-30T15:59:14.723Z,98135.31
2018-04-30T16:01:44.483Z,98143.77
2018-04-30T16:04:14.617Z,98153.85
2018-04-30T16:06:44.167Z,98116.12
2018-04-30T16:09:14.232Z,98152.70
2018-04-30T16:11:43.960Z,98149.58
2018-04-30T16:14:14.579Z,98157.57
2018-04-30T16:16:45.550Z,98150.56
2018-04-30T16:19:17.156Z,98131.02
2018-04-30T16:21:47.849Z,98151.34
2018-04-30T16:24:18.372Z,98142.27
2018-04-30T16:26:47.925Z,98141.92
2018-04-30T16:29:19.109Z,98147.25
2018-04-30T16:31:48.880Z,98139.63
2018-04-30T16:34:19.115Z,98168.69
2018-04-30T16:36:48.670Z,98166.41
2018-04-30T16:39:18.541Z,98183.30
2018-04-30T16:41:48.157Z,98182.33
2018-04-30T16:44:18.013Z,98174.62
2018-04-30T16:46:48.782Z,98187.73
2018-04-30T16:49:18.822Z,98200.11
2018-04-30T16:51:48.446Z,98178.23
2018-04-30T16:54:19.225Z,98189.36
2018-04-30T16:56:48.886Z,98184.23
2018-04-30T16:59:19.445Z,98208.73
2018-04-30T17:01:50.608Z,98194.95
2018-04-30T17:04:20.246Z,98177.14
2018-04-30T17:06:50.111Z,98183.77
2018-04-30T17:09:19.731Z,98183.97
2018-04-30T17:11:51.526Z,98148.94
2018-04-30T17:14:21.583Z,98186.71
2018-04-30T17:16:51.987Z,98197.05
2018-04-30T17:19:21.724Z,98199.92
2018-04-30T17:21:53.169Z,98147.77
2018-04-30T17:24:22.887Z,98186.31
2018-04-30T17:26:52.364Z,98184.42
2018-04-30T17:29:22.232Z,98182.73
2018-04-30T17:31:51.749Z,98181.83
2018-04-30T17:34:21.833Z,98176.44
2018-04-30T17:36:51.677Z,98159.98
2018-04-30T17:39:21.181Z,98187.45
2018-04-30T17:41:50.614Z,98203.30
2018-04-30T17:44:20.166Z,98200.64
2018-04-30T17:46:50.601Z,98205.55
2018-04-30T17:49:20.536Z,98198.27
2018-04-30T17:51:49.960Z,98196.63
2018-04-30T17:54:19.518Z,98219.64
2018-04-30T17:56:49.077Z,98213.53
2018-04-30T17:59:19.515Z,98193.36
2018-04-30T18:01:50.027Z,98208.92
2018-04-30T18:04:20.574Z,98187.86
2018-04-30T18:06:50.343Z,98205.52
2018-04-30T18:09:19.923Z,98214.08
2018-04-30T18:11:49.412Z,98220.78
2018-04-30T18:14:19.772Z,98222.84
2018-04-30T18:16:49.428Z,98233.45
2018-04-30T18:19:19.289Z,98241.55
2018-04-30T18:21:48.855Z,98221.79
2018-04-30T18:24:18.738Z,98235.13
2018-04-30T18:26:48.252Z,98247.16
2018-04-30T18:29:19.757Z,98250.78
2018-04-30T18:31:49.231Z,98263.97
2018-04-30T18:34:18.876Z,98259.83
2018-04-30T18:36:48.323Z,98226.91
2018-04-30T18:39:19.395Z,98238.00
2018-04-30T18:41:49.033Z,98261.25
2018-04-30T18:44:19.064Z,98265.23
2018-04-30T18:46:48.845Z,98265.78
2018-04-30T18:49:18.618Z,98282.34
2018-04-30T18:51:48.132Z,98284.31
2018-04-30T18:54:18.557Z,98292.09
2018-04-30T18:56:47.985Z,98273.30
2018-04-30T18:59:17.742Z,98275.82
2018-04-30T19:01:47.199Z,98292.77
2018-04-30T19:04:16.887Z,98282.16
2018-04-30T19:06:46.587Z,98294.89
2018-04-30T19:09:16.288Z,98297.47
2018-04-30T19:11:46.567Z,98287.11
2018-04-30T19:14:16.324Z,98293.69
2018-04-30T19:16:45.861Z,98295.81
2018-04-30T19:19:15.842Z,98284.81
2018-04-30T19:21:45.506Z,98300.11
2018-04-30T19:24:15.798Z,98287.48
2018-04-30T19:26:46.028Z,98285.27
2018-04-30T19:29:15.660Z,98301.51
2018-04-30T19:31:45.479Z,98293.11
2018-04-30T19:34:15.043Z,98290.20
2018-04-30T19:36:46.577Z,98187.15
2018-04-30T19:39:16.514Z,98307.53
2018-04-30T19:41:46.413Z,98306.80
2018-04-30T19:44:16.931Z,98302.10
2018-04-30T19:46:46.952Z,98287.77
2018-04-30T19:49:16.413Z,98289.55
2018-04-30T19:51:45.897Z,98304.06
2018-04-30T19:54:15.814Z,98299.76
2018-04-30T19:56:45.860Z,98270.27
2018-04-30T19:59:15.693Z,98309.08
2018-04-30T20:01:46.457Z,98309.68
2018-04-30T20:04:16.644Z,98335.62
2018-04-30T20:06:47.200Z,98322.51
2018-04-30T20:09:17.994Z,98308.62
2018-04-30T20:11:49.595Z,98321.80
2018-04-30T20:14:20.284Z,98288.32
2018-04-30T20:16:50.677Z,98341.84
2018-04-30T20:19:20.549Z,98322.25
2018-04-30T20:21:55.197Z,98276.91
2018-04-30T20:24:25.152Z,98328.75
2018-04-30T20:26:54.886Z,98324.61
2018-04-30T20:29:24.505Z,98330.41
2018-04-30T20:31:54.241Z,98347.98
2018-04-30T20:34:24.397Z,98345.66
2018-04-30T20:36:54.015Z,98342.19
2018-04-30T20:39:24.201Z,98347.35
2018-04-30T20:41:53.844Z,98365.86
2018-04-30T20:44:23.254Z,98364.04
2018-04-30T20:46:53.634Z,98346.55
2018-04-30T20:49:23.935Z,98351.27
2018-04-30T20:51:53.841Z,98354.01
2018-04-30T20:54:23.960Z,98348.34
2018-04-30T20:56:53.620Z,98356.87
2018-04-30T20:59:23.710Z,98358.92
2018-04-30T21:01:53.553Z,98342.38
2018-04-30T21:04:23.042Z,98359.66
2018-04-30T21:06:52.548Z,98363.41
2018-04-30T21:09:22.375Z,98352.32
2018-04-30T21:11:52.415Z,98368.27
2018-04-30T21:14:21.861Z,98380.16
2018-04-30T21:16:51.917Z,98355.58
2018-04-30T21:19:21.563Z,98367.53
2018-04-30T21:21:51.021Z,98361.34
2018-04-30T21:24:21.006Z,98365.16
2018-04-30T21:26:50.805Z,98370.02
2018-04-30T21:29:20.573Z,98371.11
2018-04-30T21:31:50.357Z,98368.89
2018-04-30T21:34:19.797Z,98378.36
2018-04-30T21:36:49.743Z,98346.25
2018-04-30T21:39:19.562Z,98373.80
2018-04-30T21:41:48.971Z,98353.18
2018-04-30T21:44:18.468Z,98363.05
2018-04-30T21:46:48.900Z,98338.77
2018-04-30T21:49:18.352Z,98370.14
2018-04-30T21:51:47.995Z,98371.94
2018-04-30T21:54:17.807Z,98371.64
2018-04-30T21:56:47.198Z,98374.28
2018-04-30T21:59:16.705Z,98382.66
2018-04-30T22:01:46.852Z,98361.22
2018-04-30T22:04:16.961Z,98370.70
2018-04-30T22:06:47.363Z,98374.34
2018-04-30T22:09:17.185Z,98321.05
2018-04-30T22:11:46.703Z,98377.80
2018-04-30T22:14:16.371Z,98346.39
2018-04-30T22:16:46.684Z,98346.52
2018-04-30T22:19:16.731Z,98362.51
2018-04-30T22:21:46.243Z,98371.66
2018-04-30T22:24:16.015Z,98371.56
2018-04-30T22:26:45.421Z,98374.47
2018-04-30T22:29:15.568Z,98378.29
2018-04-30T22:31:45.902Z,98340.02
2018-04-30T22:34:15.596Z,98390.02
2018-04-30T22:36:45.007Z,98375.52
2018-04-30T22:39:15.120Z,98356.25
2018-04-30T22:41:44.793Z,98369.00
2018-04-30T22:44:14.290Z,98378.70
2018-04-30T22:46:44.201Z,98387.77
2018-04-30T22:49:14.272Z,98402.30
2018-04-30T22:51:43.770Z,98390.79
2018-04-30T22:54:13.566Z,98386.80
2018-04-30T22:56:44.518Z,98391.63
2018-04-30T22:59:13.910Z,98347.19
2018-04-30T23:01:44.990Z,98407.19
2018-04-30T23:04:14.743Z,98405.61
2018-04-30T23:06:45.012Z,98399.97
2018-04-30T23:09:14.979Z,98401.69
2018-04-30T23:11:46.245Z,98392.64
2018-04-30T23:14:16.497Z,98406.91
2018-04-30T23:16:47.007Z,98401.66
2018-04-30T23:19:16.929Z,98403.92
2018-04-30T23:21:46.538Z,98394.61
2018-04-30T23:24:16.244Z,98390.75
2018-04-30T23:26:45.822Z,98422.59
2018-04-30T23:29:15.760Z,98407.70
2018-04-30T23:31:45.936Z,98406.38
2018-04-30T23:34:16.045Z,98408.50
2018-04-30T23:36:46.793Z,98407.70
2018-04-30T23:39:18.994Z,98403.07
2018-04-30T23:41:49.709Z,98404.72
2018-04-30T23:44:20.299Z,98409.55
2018-04-30T23:46:50.918Z,98408.11
2018-04-30T23:49:21.258Z,98400.05
2018-04-30T23:51:50.939Z,98396.45
2018-04-30T23:54:20.587Z,98381.97
2018-04-30T23:56:49.968Z,98395.56
2018-04-30T23:59:19.918Z,98391.17
